Time;durP1;ratioP1;P1;durP2;ratioP2;P2;SDS_P1;SDS_P2;PMS_P1;PMS_P2;Temp;Humidity;BMP_temperature;BMP_pressure;BME280_temperature;BME280_humidity;BME280_pressure;Samples;Min_cycle;Max_cycle;Signal;HPM_P1;HPM_P2
2022/12/26 00:01:27;;;;;;;2.83;2.13;;;10.30;99.90;;;;;;5071088;28;20041;-71
2022/12/26 00:03:54;;;;;;;3.60;2.60;;;10.30;99.90;;;;;;5071196;28;20020;-71
2022/12/26 00:06:22;;;;;;;3.60;2.53;;;10.30;99.90;;;;;;5070910;28;20027;-71
2022/12/26 00:08:48;;;;;;;3.38;2.20;;;10.20;99.90;;;;;;5071329;28;20114;-71
2022/12/26 00:11:14;;;;;;;4.95;2.25;;;10.20;99.90;;;;;;5071286;28;20099;-70
2022/12/26 00:13:40;;;;;;;3.33;2.42;;;10.30;99.90;;;;;;5071029;28;20079;-70
2022/12/26 00:16:14;;;;;;;6.15;3.10;;;10.20;99.90;;;;;;5053757;28;20105;-70
2022/12/26 00:18:41;;;;;;;3.28;2.53;;;10.20;99.90;;;;;;5060256;28;20035;-70
2022/12/26 00:21:08;;;;;;;4.38;2.33;;;10.20;99.90;;;;;;5071981;28;20032;-71
2022/12/26 00:23:35;;;;;;;3.30;2.38;;;10.20;99.90;;;;;;5063939;28;20045;-71
2022/12/26 00:26:06;;;;;;;2.30;2.10;;;10.20;99.90;;;;;;5070352;28;20033;-71
2022/12/26 00:28:32;;;;;;;3.70;2.40;;;10.20;99.90;;;;;;5069418;28;20695;-70
2022/12/26 00:30:58;;;;;;;5.20;3.00;;;10.20;99.90;;;;;;5070607;28;20028;-70
2022/12/26 00:33:23;;;;;;;3.53;2.40;;;10.20;99.90;;;;;;5060834;28;20023;-70
2022/12/26 00:35:49;;;;;;;3.80;2.45;;;10.20;99.90;;;;;;5071414;28;20043;-71
2022/12/26 00:38:15;;;;;;;5.03;2.85;;;10.10;99.90;;;;;;5068814;28;20052;-71
2022/12/26 00:40:42;;;;;;;4.45;3.60;;;10.00;99.90;;;;;;5067636;28;20382;-70
2022/12/26 00:43:08;;;;;;;3.38;2.92;;;9.90;99.90;;;;;;5069744;28;20031;-71
2022/12/26 00:45:34;;;;;;;3.30;2.35;;;9.80;99.90;;;;;;5069451;28;20028;-70
2022/12/26 00:48:00;;;;;;;3.97;2.95;;;9.70;99.90;;;;;;5069604;28;20033;-71
2022/12/26 00:50:26;;;;;;;3.22;2.92;;;9.60;99.90;;;;;;5069543;28;20028;-71
2022/12/26 00:52:52;;;;;;;2.97;2.45;;;9.50;99.90;;;;;;5069433;28;20519;-72
2022/12/26 00:55:17;;;;;;;8.05;2.80;;;9.50;99.90;;;;;;5068745;28;20063;-72
2022/12/26 00:57:43;;;;;;;5.45;2.70;;;9.40;99.90;;;;;;5063618;28;20037;-72
2022/12/26 01:00:09;;;;;;;3.83;2.33;;;9.40;99.90;;;;;;5042923;28;20025;-71
2022/12/26 01:02:38;;;;;;;3.20;2.30;;;9.40;99.90;;;;;;5058414;28;20025;-71
2022/12/26 01:05:08;;;;;;;6.10;2.10;;;9.50;99.90;;;;;;5060397;28;20040;-71
2022/12/26 01:07:35;;;;;;;3.80;2.25;;;9.50;99.90;;;;;;5066163;28;20041;-71
2022/12/26 01:10:02;;;;;;;3.22;2.10;;;9.60;99.90;;;;;;5061999;28;20052;-72
2022/12/26 01:12:29;;;;;;;5.28;2.30;;;9.60;99.90;;;;;;5067213;28;20250;-71
2022/12/26 01:14:55;;;;;;;3.97;2.55;;;9.70;99.90;;;;;;5069824;28;20032;-71
2022/12/26 01:17:21;;;;;;;3.10;2.30;;;9.80;99.90;;;;;;5068437;28;20021;-71
2022/12/26 01:19:46;;;;;;;2.78;2.28;;;9.80;99.90;;;;;;5069252;28;20134;-71
2022/12/26 01:22:12;;;;;;;4.05;2.38;;;9.90;99.90;;;;;;5066903;28;20069;-71
2022/12/26 01:24:38;;;;;;;2.15;1.95;;;9.90;99.90;;;;;;5050663;28;20437;-71
2022/12/26 01:27:03;;;;;;;2.40;2.20;;;9.90;99.90;;;;;;5050584;28;20053;-71
2022/12/26 01:29:29;;;;;;;4.40;1.77;;;9.90;99.90;;;;;;5047065;28;20024;-71
2022/12/26 01:31:55;;;;;;;6.45;2.72;;;9.80;99.90;;;;;;5048041;28;20028;-71
2022/12/26 01:34:20;;;;;;;2.97;2.17;;;9.80;99.90;;;;;;5049203;28;20474;-71
2022/12/26 01:36:46;;;;;;;5.57;2.13;;;9.90;99.90;;;;;;5055602;28;20063;-71
2022/12/26 01:39:11;;;;;;;2.50;2.10;;;9.90;99.90;;;;;;5049909;28;20500;-71
2022/12/26 01:41:37;;;;;;;3.05;1.90;;;9.80;99.90;;;;;;5050652;28;20496;-71
2022/12/26 01:44:44;;;;;;;2.90;2.33;;;9.70;99.90;;;;;;5048951;28;20032;-71
2022/12/26 01:47:10;;;;;;;3.63;2.47;;;9.60;99.90;;;;;;5049964;28;20084;-71
2022/12/26 01:49:41;;;;;;;4.60;1.90;;;9.50;99.90;;;;;;5049968;28;20108;-71
2022/12/26 01:52:12;;;;;;;2.40;1.98;;;9.50;99.90;;;;;;5050843;28;20043;-71
2022/12/26 01:54:40;;;;;;;3.17;2.35;;;9.50;99.90;;;;;;5049890;28;20465;-71
2022/12/26 01:57:12;;;;;;;3.20;2.30;;;9.50;99.90;;;;;;5050741;28;20052;-71
2022/12/26 01:59:39;;;;;;;3.05;1.92;;;9.60;99.90;;;;;;5050252;28;20172;-71
2022/12/26 02:02:05;;;;;;;3.08;2.10;;;9.60;99.90;;;;;;5057035;28;20116;-71
2022/12/26 02:07:23;;;;;;;3.40;2.33;;;9.80;99.90;;;;;;5049172;28;20028;-70
2022/12/26 02:09:48;;;;;;;3.10;2.08;;;9.90;99.90;;;;;;5050233;28;20072;-70
2022/12/26 02:12:24;;;;;;;2.65;2.28;;;10.00;99.90;;;;;;5049560;28;20020;-71
2022/12/26 02:14:50;;;;;;;3.25;2.17;;;9.90;99.90;;;;;;5054204;28;20032;-71
2022/12/26 02:17:16;;;;;;;2.80;2.10;;;10.10;99.90;;;;;;5053723;28;20108;-71
2022/12/26 02:20:12;;;;;;;2.38;2.17;;;10.10;99.90;;;;;;5053941;28;20029;-71
2022/12/26 02:22:55;;;;;;;2.95;1.88;;;10.20;99.90;;;;;;5056851;28;20155;-72
2022/12/26 02:25:50;;;;;;;2.33;2.08;;;10.10;99.90;;;;;;5073218;28;20594;-71
2022/12/26 02:28:34;;;;;;;2.17;1.98;;;10.20;99.90;;;;;;5072833;28;20496;-71
2022/12/26 02:31:10;;;;;;;2.70;2.50;;;10.10;99.90;;;;;;5074319;28;20029;-71
2022/12/26 02:33:57;;;;;;;5.43;2.50;;;10.00;99.90;;;;;;5073156;28;20028;-71
2022/12/26 02:36:36;;;;;;;2.38;2.10;;;10.10;99.90;;;;;;5071197;28;20055;-71
2022/12/26 02:39:10;;;;;;;3.80;2.20;;;10.00;99.90;;;;;;5068250;28;20025;-71
2022/12/26 02:42:23;;;;;;;6.80;2.33;;;9.90;99.90;;;;;;5073263;28;20086;-71
2022/12/26 02:48:12;;;;;;;3.88;2.10;;;9.70;99.90;;;;;;5072951;28;20697;-71
2022/12/26 03:14:14;;;;;;;3.67;2.58;;;9.50;99.90;;;;;;5070495;28;20389;-71
2022/12/26 03:19:28;;;;;;;4.93;3.42;;;9.40;99.90;;;;;;5072156;28;20035;-71
2022/12/26 03:21:55;;;;;;;4.22;2.90;;;9.40;99.90;;;;;;5072306;28;21627;-71
2022/12/26 03:24:22;;;;;;;3.15;2.47;;;9.40;99.90;;;;;;5070968;28;20039;-71
2022/12/26 03:26:53;;;;;;;3.13;2.78;;;9.50;99.90;;;;;;5072742;28;20111;-71
2022/12/26 03:32:08;;;;;;;4.07;2.83;;;9.40;99.90;;;;;;5072814;28;20035;-71
2022/12/26 03:34:40;;;;;;;3.00;2.65;;;9.30;99.90;;;;;;5071816;28;20090;-71
2022/12/26 03:37:53;;;;;;;5.18;3.20;;;9.20;99.90;;;;;;5072832;28;20031;-71
2022/12/26 04:19:41;;;;;;;6.07;2.55;;;8.50;99.90;;;;;;5064166;28;20158;-71
2022/12/26 04:45:06;;;;;;;4.13;2.10;;;10.00;99.90;;;;;;5070395;28;20047;-70
2022/12/26 04:47:32;;;;;;;3.72;2.05;;;10.20;99.90;;;;;;5047421;28;20452;-70
2022/12/26 04:50:12;;;;;;;3.15;2.00;;;10.30;99.90;;;;;;5071312;28;20036;-71
2022/12/26 04:52:59;;;;;;;3.97;2.10;;;10.40;99.90;;;;;;5058688;28;20770;-72
2022/12/26 04:55:30;;;;;;;4.00;2.00;;;10.50;99.90;;;;;;5065331;28;20029;-71
2022/12/26 04:57:56;;;;;;;3.30;1.90;;;10.70;99.90;;;;;;5070042;28;20390;-71
2022/12/26 05:00:23;;;;;;;2.92;2.30;;;10.70;99.90;;;;;;5070313;28;20021;-71
2022/12/26 05:11:20;;;;;;;2.40;1.98;;;11.00;99.90;;;;;;5069785;28;20036;-74
2022/12/26 05:13:46;;;;;;;2.80;2.20;;;11.00;99.90;;;;;;5066122;28;20028;-72
2022/12/26 05:29:59;;;;;;;2.92;2.13;;;10.80;99.90;;;;;;5067848;28;20523;-70
2022/12/26 05:35:09;;;;;;;1.60;1.50;;;10.80;99.90;;;;;;5076962;28;20100;-71
2022/12/26 05:37:35;;;;;;;4.68;2.08;;;10.70;99.90;;;;;;5070973;28;20017;-72
2022/12/26 05:40:01;;;;;;;3.25;2.03;;;10.70;99.90;;;;;;5072515;28;20104;-72
2022/12/26 05:42:27;;;;;;;6.30;2.10;;;10.60;99.90;;;;;;5068028;28;20033;-72
2022/12/26 05:44:52;;;;;;;2.72;2.00;;;10.60;99.90;;;;;;5068586;28;20029;-72
2022/12/26 05:47:18;;;;;;;6.05;1.98;;;10.70;99.90;;;;;;5070333;28;20032;-72
2022/12/26 05:49:43;;;;;;;2.45;1.75;;;10.70;99.90;;;;;;5068838;28;20029;-72
2022/12/26 05:52:09;;;;;;;2.58;2.08;;;10.80;99.90;;;;;;5073022;28;20059;-72
2022/12/26 05:54:35;;;;;;;3.85;1.85;;;10.80;99.90;;;;;;5067826;28;20100;-72
2022/12/26 05:57:00;;;;;;;2.00;1.80;;;10.80;99.90;;;;;;5069447;28;20044;-72
2022/12/26 05:59:26;;;;;;;2.20;1.88;;;10.80;99.90;;;;;;5068598;28;20086;-72
2022/12/26 06:01:52;;;;;;;1.85;1.70;;;10.80;99.90;;;;;;5065369;28;20028;-72
2022/12/26 06:04:18;;;;;;;6.82;1.85;;;10.80;99.90;;;;;;5061135;28;20029;-72
2022/12/26 06:06:43;;;;;;;2.50;1.73;;;10.90;99.90;;;;;;5070834;28;20052;-72
2022/12/26 06:09:09;;;;;;;3.45;2.10;;;10.90;99.90;;;;;;5070138;28;20458;-72
2022/12/26 06:11:34;;;;;;;2.80;1.83;;;10.90;99.90;;;;;;5069804;28;20060;-72
2022/12/26 06:14:00;;;;;;;3.42;1.80;;;11.00;99.90;;;;;;5069776;28;20021;-72
2022/12/26 06:16:26;;;;;;;3.10;1.95;;;11.00;99.90;;;;;;5069275;28;20030;-72
2022/12/26 06:18:53;;;;;;;2.38;1.98;;;11.10;99.90;;;;;;5069812;28;20020;-72
2022/12/26 06:21:20;;;;;;;2.75;1.80;;;11.10;99.90;;;;;;5069611;28;20108;-72
2022/12/26 06:23:46;;;;;;;2.72;1.90;;;11.20;99.90;;;;;;5068985;28;20048;-72
2022/12/26 06:26:13;;;;;;;2.83;1.80;;;11.20;99.90;;;;;;5069792;28;20036;-72
2022/12/26 06:28:40;;;;;;;2.35;1.63;;;11.30;99.90;;;;;;5069074;28;20051;-72
2022/12/26 06:31:21;;;;;;;2.25;1.70;;;11.30;99.90;;;;;;5070218;28;20025;-72
2022/12/26 06:33:48;;;;;;;2.92;1.98;;;11.30;99.90;;;;;;5069885;28;20079;-72
2022/12/26 06:36:20;;;;;;;4.28;1.63;;;11.30;99.90;;;;;;5068509;28;20445;-73
2022/12/26 06:38:46;;;;;;;4.55;1.88;;;11.20;99.90;;;;;;5069784;28;20370;-72
2022/12/26 06:41:14;;;;;;;2.60;1.88;;;11.20;99.90;;;;;;5070439;28;20104;-71
2022/12/26 06:43:40;;;;;;;2.15;1.70;;;11.30;99.90;;;;;;5069211;28;20037;-71
2022/12/26 06:46:07;;;;;;;3.80;2.20;;;11.20;99.90;;;;;;5051749;28;20067;-72
2022/12/26 06:48:38;;;;;;;3.65;1.98;;;11.30;99.90;;;;;;5068911;28;20017;-72
2022/12/26 06:51:05;;;;;;;9.40;1.90;;;11.30;99.90;;;;;;5066317;28;20043;-72
2022/12/26 06:53:32;;;;;;;3.10;1.80;;;11.40;99.90;;;;;;5065153;28;20020;-72
2022/12/26 06:56:23;;;;;;;1.83;1.60;;;11.30;99.90;;;;;;5069162;28;20432;-72
2022/12/26 06:58:57;;;;;;;2.80;2.03;;;11.40;99.90;;;;;;5066586;28;20060;-72
2022/12/26 07:01:24;;;;;;;4.70;2.80;;;11.40;99.90;;;;;;5069163;28;20020;-72
2022/12/26 07:03:51;;;;;;;4.28;2.90;;;11.40;99.90;;;;;;5064343;28;20083;-72
2022/12/26 07:06:32;;;;;;;4.05;2.30;;;11.40;99.90;;;;;;5058400;28;20033;-72
2022/12/26 07:09:01;;;;;;;4.82;2.05;;;11.30;99.90;;;;;;5062853;28;20025;-72
2022/12/26 07:11:29;;;;;;;2.53;1.80;;;11.30;99.90;;;;;;5063711;28;20035;-71
2022/12/26 07:13:55;;;;;;;4.25;1.98;;;11.30;99.90;;;;;;5061874;28;20024;-72
2022/12/26 07:16:21;;;;;;;2.80;1.73;;;11.30;99.90;;;;;;5071512;28;20029;-76
2022/12/26 07:18:47;;;;;;;3.15;2.00;;;11.30;99.90;;;;;;5065360;28;20067;-70
2022/12/26 07:21:14;;;;;;;3.53;1.80;;;11.30;99.90;;;;;;5068176;28;20052;-72
2022/12/26 07:23:40;;;;;;;3.45;1.98;;;11.30;99.90;;;;;;5071493;28;20041;-72
2022/12/26 07:26:07;;;;;;;3.83;1.67;;;11.30;99.90;;;;;;5072279;28;20116;-72
2022/12/26 07:28:33;;;;;;;3.08;1.90;;;11.30;99.90;;;;;;5071656;28;20020;-72
2022/12/26 07:30:59;;;;;;;2.35;1.70;;;11.30;99.90;;;;;;5068673;28;20468;-71
2022/12/26 07:33:27;;;;;;;2.00;1.80;;;11.30;99.90;;;;;;5064484;28;20496;-73
2022/12/26 07:35:53;;;;;;;1.70;1.60;;;11.30;99.90;;;;;;5068639;28;20059;-72
2022/12/26 07:38:18;;;;;;;2.25;1.90;;;11.30;99.90;;;;;;5071752;28;20505;-72
2022/12/26 07:40:44;;;;;;;3.42;1.70;;;11.30;99.90;;;;;;5073094;28;20025;-72
2022/12/26 07:43:10;;;;;;;2.45;1.75;;;11.30;99.90;;;;;;5072461;28;20028;-71
2022/12/26 07:45:35;;;;;;;2.75;1.70;;;11.30;99.90;;;;;;5069902;28;20674;-73
2022/12/26 07:48:01;;;;;;;2.22;1.80;;;11.20;99.90;;;;;;5072072;28;20056;-73
2022/12/26 07:50:27;;;;;;;3.20;1.88;;;11.20;99.90;;;;;;5071632;28;20028;-75
2022/12/26 07:52:53;;;;;;;2.15;1.90;;;11.20;99.90;;;;;;5071311;28;20038;-74
2022/12/26 07:55:20;;;;;;;3.78;1.98;;;11.20;99.90;;;;;;5071786;28;20037;-73
2022/12/26 07:57:50;;;;;;;2.50;1.95;;;11.20;99.90;;;;;;5071564;28;20096;-74
2022/12/26 08:00:17;;;;;;;;;;;11.20;99.90;;;;;;5071767;28;20139;-74
2022/12/26 08:02:43;;;;;;;3.05;2.25;;;11.20;99.90;;;;;;5067551;28;19906;-74
2022/12/26 08:05:09;;;;;;;7.85;1.85;;;11.20;99.90;;;;;;5043077;28;20055;-72
2022/12/26 08:07:34;;;;;;;3.83;2.10;;;11.20;99.90;;;;;;5067685;28;20036;-72
2022/12/26 08:10:00;;;;;;;3.13;2.40;;;11.10;99.90;;;;;;5059988;28;20031;-73
2022/12/26 08:12:25;;;;;;;2.17;1.98;;;10.90;99.90;;;;;;5070332;28;20060;-73
2022/12/26 08:14:51;;;;;;;5.05;2.60;;;10.80;99.90;;;;;;5071985;28;20035;-72
2022/12/26 08:17:17;;;;;;;4.00;2.88;;;10.70;99.90;;;;;;5070843;28;20429;-74
2022/12/26 08:19:43;;;;;;;7.20;1.90;;;10.60;99.90;;;;;;5069723;28;20036;-71
2022/12/26 08:22:09;;;;;;;2.63;2.30;;;10.60;99.90;;;;;;5066460;28;20132;-72
2022/12/26 08:24:35;;;;;;;3.03;2.08;;;10.60;99.90;;;;;;5043755;28;20049;-69
2022/12/26 08:27:00;;;;;;;2.67;2.20;;;10.60;99.90;;;;;;5054179;28;20080;-69
2022/12/26 08:29:26;;;;;;;2.35;2.08;;;10.60;99.90;;;;;;5050675;28;20135;-69
2022/12/26 08:31:52;;;;;;;4.22;2.22;;;10.60;99.90;;;;;;5051546;28;20112;-69
2022/12/26 08:34:18;;;;;;;2.80;2.38;;;10.60;99.90;;;;;;5047877;28;20709;-71
2022/12/26 08:36:43;;;;;;;3.58;2.45;;;10.60;99.90;;;;;;5054437;28;20061;-69
2022/12/26 08:39:09;;;;;;;3.95;2.22;;;10.60;99.90;;;;;;5051597;28;20024;-69
2022/12/26 08:41:35;;;;;;;2.40;2.00;;;10.60;99.90;;;;;;5050847;28;20482;-69
2022/12/26 08:44:00;;;;;;;4.10;2.50;;;10.60;99.90;;;;;;5032921;28;20025;-70
2022/12/26 08:46:26;;;;;;;5.85;2.17;;;10.60;99.90;;;;;;5046325;28;20437;-70
2022/12/26 08:48:51;;;;;;;2.88;2.55;;;10.70;99.90;;;;;;5051045;28;20049;-68
2022/12/26 08:51:22;;;;;;;4.95;2.33;;;10.70;99.90;;;;;;5050647;28;20103;-72
2022/12/26 08:53:49;;;;;;;3.38;2.25;;;10.60;99.90;;;;;;5033072;28;20446;-70
2022/12/26 08:56:17;;;;;;;3.05;2.35;;;10.60;99.90;;;;;;5051190;28;20104;-71
2022/12/26 08:58:43;;;;;;;3.25;2.53;;;10.60;99.90;;;;;;5048333;28;20025;-70
2022/12/26 09:01:12;;;;;;;2.90;2.17;;;10.60;99.90;;;;;;5051732;28;20112;-70
2022/12/26 09:03:38;;;;;;;4.90;2.30;;;10.60;99.90;;;;;;5049923;28;20040;-69
2022/12/26 09:06:05;;;;;;;4.07;2.90;;;10.60;99.90;;;;;;5050858;28;20044;-68
2022/12/26 09:08:33;;;;;;;4.80;2.45;;;10.60;99.90;;;;;;5049551;28;20033;-69
2022/12/26 09:11:07;;;;;;;5.80;3.40;;;10.60;99.90;;;;;;5051025;28;20033;-68
2022/12/26 09:13:33;;;;;;;3.65;2.85;;;10.50;99.90;;;;;;5049750;28;20029;-68
2022/12/26 09:16:11;;;;;;;4.32;2.45;;;10.40;99.90;;;;;;5050869;28;20028;-68
2022/12/26 09:18:38;;;;;;;4.97;3.42;;;10.30;99.90;;;;;;5040815;28;20574;-68
2022/12/26 09:21:06;;;;;;;4.50;3.67;;;10.20;99.90;;;;;;5050786;28;20175;-68
2022/12/26 09:23:32;;;;;;;7.03;4.35;;;10.00;99.90;;;;;;5064099;28;20067;-68
2022/12/26 09:26:10;;;;;;;9.07;4.70;;;9.90;99.90;;;;;;5068788;28;20478;-71
2022/12/26 09:28:36;;;;;;;5.00;3.95;;;9.90;99.90;;;;;;5068848;28;20095;-68
2022/12/26 09:31:05;;;;;;;6.53;4.15;;;9.80;99.90;;;;;;5070998;28;20032;-68
2022/12/26 09:33:37;;;;;;;6.70;3.80;;;9.80;99.90;;;;;;5068546;28;20037;-68
2022/12/26 09:36:08;;;;;;;5.45;4.32;;;9.80;99.90;;;;;;5066069;28;20087;-67
2022/12/26 09:38:35;;;;;;;4.97;3.90;;;9.80;99.90;;;;;;5062793;28;20070;-69
2022/12/26 09:41:25;;;;;;;10.68;4.55;;;9.80;99.90;;;;;;5066382;28;20162;-68
2022/12/26 09:44:08;;;;;;;6.25;4.28;;;9.80;99.90;;;;;;5064679;28;20032;-68
2022/12/26 09:46:42;;;;;;;8.55;4.15;;;9.80;99.90;;;;;;5062113;28;20370;-69
2022/12/26 09:49:21;;;;;;;6.57;4.07;;;9.80;99.90;;;;;;5070833;28;20024;-68
2022/12/26 09:51:51;;;;;;;5.35;4.25;;;9.80;99.90;;;;;;5071060;28;20025;-68
2022/12/26 09:54:25;;;;;;;;;;;9.70;99.90;;;;;;5070071;28;20028;-71
2022/12/26 09:56:53;;;;;;;6.53;3.95;;;9.70;99.90;;;;;;5070151;28;19905;-68
2022/12/26 09:59:23;;;;;;;7.82;4.60;;;9.70;99.90;;;;;;5068029;28;20044;-68
2022/12/26 10:01:49;;;;;;;6.35;4.95;;;9.90;99.90;;;;;;5070620;28;20029;-69
2022/12/26 10:04:20;;;;;;;8.20;5.18;;;9.90;99.90;;;;;;5068963;28;20385;-68
2022/12/26 10:07:00;;;;;;;7.40;4.85;;;9.80;99.90;;;;;;5070212;28;20029;-68
2022/12/26 10:09:47;;;;;;;8.20;6.07;;;9.60;99.90;;;;;;5069055;28;20458;-68
2022/12/26 10:12:31;;;;;;;11.07;6.15;;;9.50;99.90;;;;;;5070378;28;20051;-68
2022/12/26 10:15:06;;;;;;;8.27;5.45;;;9.40;99.90;;;;;;5070008;28;20051;-69
2022/12/26 10:17:54;;;;;;;9.60;5.70;;;9.40;99.90;;;;;;5061769;28;20083;-68
2022/12/26 10:20:33;;;;;;;9.90;5.57;;;9.30;99.90;;;;;;5063270;28;20020;-73
2022/12/26 10:22:59;;;;;;;10.07;5.47;;;9.30;99.90;;;;;;5069175;28;20052;-68
2022/12/26 10:25:42;;;;;;;8.88;5.72;;;9.30;99.90;;;;;;5066287;28;20330;-69
2022/12/26 10:28:16;;;;;;;8.48;6.13;;;9.30;99.90;;;;;;5068482;28;20075;-71
2022/12/26 10:30:42;;;;;;;10.18;6.30;;;9.20;99.90;;;;;;5069511;28;20021;-72
2022/12/26 10:33:21;;;;;;;11.75;6.88;;;9.20;99.90;;;;;;5069638;28;20543;-72
2022/12/26 10:35:47;;;;;;;14.07;6.97;;;9.20;99.90;;;;;;5060167;28;20487;-71
2022/12/26 10:38:32;;;;;;;9.45;6.05;;;9.30;99.90;;;;;;5074013;28;20027;-73
2022/12/26 10:41:10;;;;;;;11.20;6.35;;;9.30;99.90;;;;;;5073907;28;20111;-74
2022/12/26 10:43:41;;;;;;;8.38;5.32;;;9.30;99.90;;;;;;5072606;28;20024;-73
2022/12/26 10:46:44;;;;;;;10.55;5.43;;;9.30;99.90;;;;;;5069145;28;20447;-72
2022/12/26 10:49:17;;;;;;;7.53;4.90;;;9.30;99.90;;;;;;5074819;28;20056;-72
2022/12/26 10:51:43;;;;;;;6.88;4.22;;;9.30;99.90;;;;;;5056061;28;20143;-74
2022/12/26 10:54:16;;;;;;;5.97;3.95;;;9.40;99.90;;;;;;5071340;28;20362;-70
2022/12/26 10:56:43;;;;;;;4.93;3.03;;;9.40;99.90;;;;;;5073284;28;20028;-70
2022/12/26 10:59:16;;;;;;;4.18;2.70;;;9.40;99.90;;;;;;5072286;28;20028;-70
2022/12/26 11:01:46;;;;;;;7.00;2.60;;;9.50;99.90;;;;;;5073215;28;20031;-70
2022/12/26 11:04:19;;;;;;;4.77;2.63;;;9.50;99.90;;;;;;5072240;28;20024;-70
2022/12/26 11:06:46;;;;;;;4.32;2.90;;;9.40;99.90;;;;;;5072603;28;20271;-70
2022/12/26 11:09:44;;;;;;;5.43;3.17;;;9.40;99.90;;;;;;5067614;28;20090;-70
2022/12/26 11:12:20;;;;;;;4.95;3.15;;;9.40;99.90;;;;;;5073407;28;20020;-71
2022/12/26 11:14:46;;;;;;;3.80;2.60;;;9.50;99.90;;;;;;5073280;28;20068;-70
2022/12/26 11:17:33;;;;;;;4.75;2.90;;;9.50;99.90;;;;;;5072851;28;20036;-69
2022/12/26 11:20:14;;;;;;;4.25;2.30;;;9.50;99.90;;;;;;5072435;28;20106;-70
2022/12/26 11:22:41;;;;;;;3.80;2.30;;;9.50;99.90;;;;;;5059107;28;20048;-70
2022/12/26 11:25:17;;;;;;;4.00;2.67;;;9.50;99.90;;;;;;5071948;28;20472;-70
2022/12/26 11:27:55;;;;;;;2.03;1.40;;;9.50;99.90;;;;;;5072567;28;20075;-69
2022/12/26 11:30:33;;;;;;;2.33;1.70;;;9.50;99.90;;;;;;5070006;28;20021;-71
2022/12/26 11:33:25;;;;;;;2.30;1.40;;;9.50;99.90;;;;;;5072441;28;20473;-69
2022/12/26 11:35:54;;;;;;;2.45;1.58;;;9.60;99.90;;;;;;5082087;28;20381;-69
2022/12/26 11:38:35;;;;;;;1.45;1.17;;;9.60;99.90;;;;;;5068414;28;20046;-71
2022/12/26 11:44:17;;;;;;;3.85;1.25;;;9.80;99.90;;;;;;5069220;28;20150;-70
2022/12/26 11:47:07;;;;;;;4.68;1.13;;;9.80;99.90;;;;;;5051600;28;20075;-71
2022/12/26 11:49:48;;;;;;;1.85;1.20;;;9.80;99.90;;;;;;5066787;28;20473;-70
2022/12/26 11:52:32;;;;;;;2.17;1.08;;;9.80;99.90;;;;;;5072834;28;20107;-70
2022/12/26 11:54:58;;;;;;;2.35;1.25;;;9.90;99.90;;;;;;5072628;28;20499;-70
2022/12/26 11:57:30;;;;;;;2.08;1.38;;;9.90;99.90;;;;;;5070692;28;20024;-71
2022/12/26 12:00:18;;;;;;;1.27;0.70;;;10.00;99.90;;;;;;5069195;28;20079;-71
2022/12/26 12:02:44;;;;;;;1.10;1.00;;;10.00;99.90;;;;;;5054498;28;20028;-71
2022/12/26 12:05:23;;;;;;;2.78;0.70;;;10.00;99.90;;;;;;5072295;28;20054;-71
2022/12/26 12:08:14;;;;;;;2.10;0.70;;;10.10;99.90;;;;;;5071937;28;20032;-70
2022/12/26 12:11:03;;;;;;;2.25;0.70;;;10.10;99.90;;;;;;5067004;28;20044;-71
2022/12/26 12:13:49;;;;;;;3.10;0.90;;;10.20;99.90;;;;;;5022157;28;20079;-70
2022/12/26 12:16:18;;;;;;;0.93;0.85;;;10.20;99.90;;;;;;5066751;28;20028;-68
2022/12/26 12:19:11;;;;;;;2.25;1.10;;;10.20;99.90;;;;;;5071089;28;20024;-68
2022/12/26 12:21:43;;;;;;;2.47;0.85;;;10.40;99.90;;;;;;5071418;28;20028;-68
2022/12/26 12:24:24;;;;;;;0.90;0.60;;;10.50;99.90;;;;;;5060360;28;20032;-73
2022/12/26 12:27:27;;;;;;;2.55;1.00;;;10.60;99.90;;;;;;5071061;28;20145;-71
2022/12/26 12:30:07;;;;;;;2.30;1.27;;;10.70;99.90;;;;;;5069333;28;20032;-69
2022/12/26 12:33:06;;;;;;;0.98;0.80;;;10.80;99.90;;;;;;5068336;28;20066;-68
2022/12/26 12:35:44;;;;;;;2.70;0.75;;;10.90;99.90;;;;;;5070948;28;20032;-68
2022/12/26 12:38:41;;;;;;;1.08;0.95;;;10.90;99.90;;;;;;5068685;28;20500;-67
2022/12/26 12:41:33;;;;;;;2.50;1.05;;;10.90;99.90;;;;;;5069452;28;20024;-67
2022/12/26 12:44:23;;;;;;;5.13;1.63;;;10.90;99.90;;;;;;5063908;28;20032;-68
2022/12/26 12:46:51;;;;;;;;;;;10.90;99.90;;;;;;5075525;28;20032;-68
2022/12/26 12:49:47;;;;;;;4.05;1.05;;;10.90;99.90;;;;;;5062465;28;19904;-70
2022/12/26 12:52:36;;;;;;;4.13;1.15;;;11.00;99.90;;;;;;5062273;28;20017;-72
2022/12/26 12:55:26;;;;;;;2.05;1.00;;;10.90;99.90;;;;;;5070439;28;20473;-71
2022/12/26 12:58:09;;;;;;;1.98;0.65;;;10.90;99.90;;;;;;5066250;28;20024;-77
2022/12/26 13:00:47;;;;;;;0.80;0.77;;;11.00;99.90;;;;;;5066724;28;20365;-81
2022/12/26 13:03:37;;;;;;;2.67;0.82;;;11.00;99.90;;;;;;5068825;28;20112;-81
2022/12/26 13:06:35;;;;;;;1.23;1.00;;;11.10;99.90;;;;;;5070690;28;20571;-79
2022/12/26 13:09:19;;;;;;;2.38;0.80;;;11.00;99.90;;;;;;5016552;28;20041;-79
2022/12/26 13:11:52;;;;;;;0.80;0.70;;;11.00;99.90;;;;;;5075146;28;20031;-76
2022/12/26 13:14:25;;;;;;;2.22;1.00;;;11.00;99.90;;;;;;5066982;28;20017;-76
2022/12/26 13:16:57;;;;;;;0.80;0.80;;;11.00;99.90;;;;;;5076507;28;20070;-76
2022/12/26 13:19:31;;;;;;;2.50;0.98;;;10.90;99.90;;;;;;5070768;28;20501;-72
2022/12/26 13:22:05;;;;;;;1.30;1.00;;;10.90;99.90;;;;;;5074885;28;20127;-72
2022/12/26 13:24:48;;;;;;;1.20;0.93;;;10.90;99.90;;;;;;5061442;28;20031;-72
2022/12/26 13:27:35;;;;;;;1.23;0.80;;;10.90;99.90;;;;;;5070074;28;20071;-71
2022/12/26 13:30:05;;;;;;;1.10;0.90;;;10.90;99.90;;;;;;5067972;28;20024;-72
2022/12/26 13:32:32;;;;;;;0.88;0.88;;;10.90;99.90;;;;;;5068447;28;20025;-71
2022/12/26 13:35:00;;;;;;;2.25;0.68;;;10.90;99.90;;;;;;5069403;28;20083;-70
2022/12/26 13:37:34;;;;;;;0.70;0.57;;;10.90;99.90;;;;;;5069923;28;20056;-70
2022/12/26 13:40:02;;;;;;;0.70;0.70;;;10.90;99.90;;;;;;5067465;28;20032;-70
2022/12/26 13:45:41;;;;;;;0.50;0.50;;;10.90;99.90;;;;;;5064384;28;20162;-74
2022/12/26 13:48:15;;;;;;;0.73;0.60;;;10.90;99.90;;;;;;5061444;28;20025;-72
2022/12/26 13:50:52;;;;;;;1.10;0.77;;;10.90;99.90;;;;;;5069269;28;20032;-71
2022/12/26 13:53:23;;;;;;;0.75;0.70;;;11.00;99.90;;;;;;5055235;28;20023;-70
2022/12/26 13:55:51;;;;;;;0.60;0.60;;;11.00;99.90;;;;;;5066097;28;20052;-69
2022/12/26 13:58:40;;;;;;;1.00;0.73;;;11.00;99.90;;;;;;5063768;28;20047;-68
2022/12/26 14:01:29;;;;;;;2.60;1.30;;;10.90;99.90;;;;;;5070251;28;20032;-69
2022/12/26 14:04:19;;;;;;;1.60;0.90;;;10.80;99.90;;;;;;5027098;28;20362;-70
2022/12/26 14:07:13;;;;;;;1.23;1.00;;;10.70;99.90;;;;;;5065740;28;20029;-70
2022/12/26 14:10:17;;;;;;;1.33;0.90;;;10.70;99.90;;;;;;5067241;28;20029;-68
2022/12/26 14:13:20;;;;;;;1.58;1.00;;;10.60;99.90;;;;;;5066234;28;20090;-70
2022/12/26 14:16:12;;;;;;;1.90;0.80;;;10.50;99.90;;;;;;5061880;28;20063;-70
2022/12/26 14:18:46;;;;;;;1.73;1.10;;;10.50;99.90;;;;;;5069035;28;20028;-70
2022/12/26 14:21:20;;;;;;;1.33;1.20;;;10.50;99.90;;;;;;5073200;28;20024;-68
2022/12/26 14:24:00;;;;;;;0.80;0.80;;;10.50;99.90;;;;;;5063754;28;20061;-68
2022/12/26 14:26:38;;;;;;;1.52;0.98;;;10.60;99.90;;;;;;5072939;28;20032;-68
2022/12/26 14:29:23;;;;;;;1.05;0.80;;;10.50;99.90;;;;;;5069286;28;20032;-74
2022/12/26 14:32:23;;;;;;;2.33;1.25;;;10.50;99.90;;;;;;5065921;28;20033;-73
2022/12/26 14:35:00;;;;;;;3.15;1.50;;;10.40;99.90;;;;;;5044373;28;20036;-77
2022/12/26 14:37:57;;;;;;;2.53;1.85;;;10.40;99.90;;;;;;5075157;28;20024;-73
2022/12/26 14:40:35;;;;;;;3.53;1.70;;;10.30;99.90;;;;;;5066768;28;20029;-72
2022/12/26 14:43:12;;;;;;;1.75;1.35;;;10.30;99.90;;;;;;5067941;28;20549;-75
2022/12/26 14:45:40;;;;;;;1.30;0.98;;;10.30;99.90;;;;;;5070020;28;20032;-74
2022/12/26 14:48:15;;;;;;;2.70;1.50;;;10.20;99.90;;;;;;5069188;28;20039;-73
2022/12/26 14:51:03;;;;;;;1.65;1.10;;;10.20;99.90;;;;;;5071250;28;20021;-73
2022/12/26 14:53:34;;;;;;;2.00;1.20;;;10.30;99.90;;;;;;5065949;28;20021;-73
2022/12/26 14:56:19;;;;;;;2.10;0.90;;;10.20;99.90;;;;;;5073062;28;20171;-73
2022/12/26 14:58:51;;;;;;;1.65;1.20;;;10.20;99.90;;;;;;5068841;28;20111;-73
2022/12/26 15:01:23;;;;;;;0.77;0.77;;;10.20;99.90;;;;;;5072753;28;20029;-75
2022/12/26 15:04:00;;;;;;;1.10;0.80;;;10.30;99.90;;;;;;5068996;28;20070;-73
2022/12/26 15:06:44;;;;;;;1.20;1.10;;;10.30;99.90;;;;;;5068226;28;20051;-72
2022/12/26 15:09:23;;;;;;;2.92;1.20;;;10.20;99.90;;;;;;5062969;28;20537;-71
2022/12/26 15:12:16;;;;;;;1.35;1.05;;;10.20;99.90;;;;;;5072198;28;20028;-70
2022/12/26 15:15:19;;;;;;;3.67;1.20;;;10.20;99.90;;;;;;5065416;28;20071;-71
2022/12/26 15:18:16;;;;;;;1.65;1.23;;;10.10;99.90;;;;;;5071652;28;20055;-71
2022/12/26 15:21:06;;;;;;;1.67;1.30;;;10.00;99.90;;;;;;5070316;28;20066;-74
2022/12/26 15:23:39;;;;;;;1.77;1.20;;;10.00;99.90;;;;;;5067346;28;20446;-70
2022/12/26 15:26:21;;;;;;;2.58;1.20;;;9.90;99.90;;;;;;5073337;28;20036;-70
2022/12/26 15:29:16;;;;;;;2.35;1.50;;;9.90;99.90;;;;;;5070539;28;20039;-70
2022/12/26 15:31:47;;;;;;;1.27;0.95;;;9.90;99.90;;;;;;5065393;28;20103;-71